createdAt,value
2022-10-06T00:00:32.435Z,0.00
2022-10-06T00:01:32.490Z,0.00
2022-10-06T00:02:32.454Z,0.00
2022-10-06T00:03:32.395Z,0.00
2022-10-06T00:04:32.405Z,0.00
2022-10-06T00:05:32.375Z,0.00
2022-10-06T00:06:32.369Z,0.00
2022-10-06T00:07:32.555Z,0.00
2022-10-06T00:08:32.342Z,0.00
2022-10-06T00:09:32.348Z,0.00
2022-10-06T00:10:32.317Z,0.00
2022-10-06T00:11:32.309Z,0.00
2022-10-06T00:12:32.296Z,0.00
2022-10-06T00:13:32.517Z,0.00
2022-10-06T00:14:32.267Z,0.00
2022-10-06T00:15:32.375Z,0.00
2022-10-06T00:16:32.248Z,0.00
2022-10-06T00:17:32.740Z,0.00
2022-10-06T00:18:32.534Z,0.00
2022-10-06T00:19:32.242Z,0.00
2022-10-06T00:20:32.213Z,0.00
2022-10-06T00:21:32.189Z,0.00
2022-10-06T00:22:32.193Z,0.00
2022-10-06T00:23:32.502Z,0.00
2022-10-06T00:24:32.168Z,0.00
2022-10-06T00:25:32.167Z,0.00
2022-10-06T00:26:32.144Z,0.00
2022-10-06T00:27:32.130Z,0.00
2022-10-06T00:28:32.845Z,0.00
2022-10-06T00:29:32.328Z,0.00
2022-10-06T00:30:32.112Z,0.00
2022-10-06T00:31:32.095Z,0.00
2022-10-06T00:32:32.076Z,0.00
2022-10-06T00:33:32.052Z,0.00
2022-10-06T00:34:32.056Z,0.00
2022-10-06T00:35:32.035Z,0.00
2022-10-06T00:36:32.055Z,0.00
2022-10-06T00:37:32.015Z,0.00
2022-10-06T00:38:32.600Z,0.00
2022-10-06T00:39:31.985Z,0.00
2022-10-06T00:40:31.989Z,0.00
2022-10-06T00:41:31.963Z,0.00
2022-10-06T00:42:32.289Z,0.00
2022-10-06T00:43:31.956Z,0.00
2022-10-06T00:44:31.927Z,0.00
2022-10-06T00:45:31.919Z,0.00
2022-10-06T00:46:31.965Z,0.00
2022-10-06T00:47:32.210Z,0.00
2022-10-06T00:48:32.323Z,0.00
2022-10-06T00:49:31.888Z,0.00
2022-10-06T00:50:31.870Z,0.00
2022-10-06T00:51:31.838Z,0.00
2022-10-06T00:52:31.848Z,0.00
2022-10-06T00:53:32.058Z,0.00
2022-10-06T00:54:32.111Z,0.00
2022-10-06T00:55:31.810Z,0.00
2022-10-06T00:56:32.111Z,0.00
2022-10-06T00:57:31.775Z,0.00
2022-10-06T00:58:31.927Z,0.00
2022-10-06T00:59:31.763Z,0.00
2022-10-06T01:00:31.753Z,0.00
2022-10-06T01:01:31.838Z,0.00
2022-10-06T01:02:31.978Z,0.00
2022-10-06T01:03:31.717Z,0.00
2022-10-06T01:04:31.961Z,0.00
2022-10-06T01:05:31.681Z,0.00
2022-10-06T01:06:31.882Z,0.00
2022-10-06T01:07:31.659Z,0.00
2022-10-06T01:08:32.032Z,0.00
2022-10-06T01:09:31.656Z,0.00
2022-10-06T01:10:31.956Z,0.00
2022-10-06T01:11:31.623Z,0.00
2022-10-06T01:12:31.595Z,0.00
2022-10-06T01:13:31.582Z,0.00
2022-10-06T01:14:31.564Z,0.00
2022-10-06T01:15:31.884Z,0.00
2022-10-06T01:16:31.544Z,0.00
2022-10-06T01:17:31.555Z,0.00
2022-10-06T01:18:31.874Z,0.00
2022-10-06T01:19:31.514Z,0.00
2022-10-06T01:20:31.815Z,0.00
2022-10-06T01:21:31.507Z,0.00
2022-10-06T01:22:31.490Z,0.00
2022-10-06T01:23:31.466Z,0.00
2022-10-06T01:24:31.461Z,0.00
2022-10-06T01:25:31.436Z,0.00
2022-10-06T01:26:31.736Z,0.00
2022-10-06T01:27:31.418Z,0.00
2022-10-06T01:28:32.025Z,0.00
2022-10-06T01:29:31.389Z,0.00
2022-10-06T01:30:31.689Z,0.00
2022-10-06T01:31:31.513Z,0.00
2022-10-06T01:32:31.371Z,0.00
2022-10-06T01:33:31.347Z,0.00
2022-10-06T01:34:31.351Z,0.00
2022-10-06T01:35:31.630Z,0.00
2022-10-06T01:36:31.308Z,0.00
2022-10-06T01:37:31.313Z,0.00
2022-10-06T01:38:31.867Z,0.00
2022-10-06T01:39:31.293Z,0.00
2022-10-06T01:40:31.260Z,0.00
2022-10-06T01:41:31.550Z,0.00
2022-10-06T01:42:31.239Z,0.00
2022-10-06T01:43:31.245Z,0.00
2022-10-06T01:44:31.224Z,0.00
2022-10-06T01:45:31.201Z,0.00
2022-10-06T01:46:31.545Z,0.00
2022-10-06T01:47:31.194Z,0.00
2022-10-06T01:48:31.645Z,0.00
2022-10-06T01:49:31.165Z,0.00
2022-10-06T01:50:31.155Z,0.00
2022-10-06T01:51:31.146Z,0.00
2022-10-06T01:52:31.404Z,0.00
2022-10-06T01:53:31.113Z,0.00
2022-10-06T01:54:31.107Z,0.00
2022-10-06T01:55:31.085Z,0.00
2022-10-06T01:56:31.064Z,0.00
2022-10-06T01:57:31.063Z,0.00
2022-10-06T01:58:31.829Z,0.00
2022-10-06T01:59:31.058Z,0.00
2022-10-06T02:00:31.025Z,0.00
2022-10-06T02:01:31.078Z,0.00
2022-10-06T02:02:30.996Z,0.00
2022-10-06T02:03:31.007Z,0.00
2022-10-06T02:04:31.295Z,0.00
2022-10-06T02:05:30.980Z,0.00
2022-10-06T02:06:30.979Z,0.00
2022-10-06T02:07:30.944Z,0.00
2022-10-06T02:08:31.384Z,0.00
2022-10-06T02:09:31.204Z,0.00
2022-10-06T02:10:30.921Z,0.00
2022-10-06T02:11:30.902Z,0.00
2022-10-06T02:12:30.893Z,0.00
2022-10-06T02:13:30.870Z,0.00
2022-10-06T02:14:30.873Z,0.00
2022-10-06T02:15:31.179Z,0.00
2022-10-06T02:16:30.894Z,0.00
2022-10-06T02:17:30.819Z,0.00
2022-10-06T02:18:31.256Z,0.00
2022-10-06T02:19:30.800Z,0.00
2022-10-06T02:20:31.001Z,0.00
2022-10-06T02:21:30.783Z,0.00
2022-10-06T02:22:30.775Z,0.00
2022-10-06T02:23:30.774Z,0.00
2022-10-06T02:24:30.740Z,0.00
2022-10-06T02:25:31.015Z,0.00
2022-10-06T02:26:30.725Z,0.00
2022-10-06T02:27:30.711Z,0.00
2022-10-06T02:28:31.140Z,0.00
2022-10-06T02:29:31.016Z,0.00
2022-10-06T02:30:30.686Z,0.00
2022-10-06T02:31:30.683Z,0.00
2022-10-06T02:32:30.657Z,0.00
2022-10-06T02:33:30.634Z,0.00
2022-10-06T02:34:30.625Z,0.00
2022-10-06T02:35:30.874Z,0.00
2022-10-06T02:36:30.619Z,0.00
2022-10-06T02:37:30.593Z,0.00
2022-10-06T02:38:31.163Z,0.00
2022-10-06T02:39:30.573Z,0.00
2022-10-06T02:40:30.545Z,0.00
2022-10-06T02:41:30.867Z,0.00
2022-10-06T02:42:30.533Z,0.00
2022-10-06T02:43:30.517Z,0.00
2022-10-06T02:44:30.497Z,0.00
2022-10-06T02:45:30.510Z,0.00
2022-10-06T02:46:30.806Z,0.00
2022-10-06T02:47:30.468Z,0.00
2022-10-06T02:48:30.864Z,0.00
2022-10-06T02:49:30.447Z,0.00
2022-10-06T02:50:30.442Z,0.00
2022-10-06T02:51:30.691Z,0.00
2022-10-06T02:52:30.718Z,0.00
2022-10-06T02:53:30.398Z,0.00
2022-10-06T02:54:30.380Z,0.00
2022-10-06T02:55:30.378Z,0.00
2022-10-06T02:56:30.572Z,0.00
2022-10-06T02:57:30.364Z,0.00
2022-10-06T02:58:31.121Z,0.00
2022-10-06T02:59:30.333Z,0.00
2022-10-06T03:00:30.331Z,0.00
2022-10-06T03:01:30.669Z,0.00
2022-10-06T03:02:30.410Z,0.00
2022-10-06T03:03:30.281Z,0.00
2022-10-06T03:04:30.280Z,0.00
2022-10-06T03:05:30.286Z,0.00
2022-10-06T03:06:30.244Z,0.00
2022-10-06T03:07:30.502Z,0.00
2022-10-06T03:08:30.474Z,0.00
2022-10-06T03:09:30.228Z,0.00
2022-10-06T03:10:30.201Z,0.00
2022-10-06T03:11:30.188Z,0.00
2022-10-06T03:12:30.174Z,0.00
2022-10-06T03:13:30.418Z,0.00
2022-10-06T03:14:30.168Z,0.00
2022-10-06T03:15:30.157Z,0.00
2022-10-06T03:16:30.213Z,0.00
2022-10-06T03:17:30.124Z,0.00
2022-10-06T03:18:30.433Z,0.00
2022-10-06T03:19:30.430Z,0.00
2022-10-06T03:20:30.087Z,0.00
2022-10-06T03:21:30.066Z,0.00
2022-10-06T03:22:30.380Z,0.00
2022-10-06T03:23:30.067Z,0.00
2022-10-06T03:24:30.050Z,0.00
2022-10-06T03:25:30.030Z,0.00
2022-10-06T03:26:30.028Z,0.00
2022-10-06T03:27:30.041Z,0.00
2022-10-06T03:28:30.214Z,0.00
2022-10-06T03:29:29.977Z,0.00
2022-10-06T03:30:29.970Z,0.00
2022-10-06T03:31:30.052Z,0.00
2022-10-06T03:32:29.960Z,0.00
2022-10-06T03:33:30.241Z,0.00
2022-10-06T03:34:29.933Z,0.00
2022-10-06T03:35:30.122Z,0.00
2022-10-06T03:36:29.899Z,0.00
2022-10-06T03:37:29.903Z,0.00
2022-10-06T03:38:30.416Z,0.00
2022-10-06T03:39:30.180Z,0.00
2022-10-06T03:40:29.874Z,0.00
2022-10-06T03:41:29.862Z,0.00
2022-10-06T03:42:29.834Z,0.00
2022-10-06T03:43:29.820Z,0.00
2022-10-06T03:44:30.116Z,0.00
2022-10-06T03:45:29.808Z,0.00
2022-10-06T03:46:29.846Z,0.00
2022-10-06T03:47:29.784Z,0.00
2022-10-06T03:48:30.067Z,0.00
2022-10-06T03:49:29.953Z,0.00
2022-10-06T03:50:29.748Z,0.00
2022-10-06T03:51:29.747Z,0.00
2022-10-06T03:52:29.727Z,0.00
2022-10-06T03:53:29.719Z,0.00
2022-10-06T03:54:29.698Z,0.00
2022-10-06T03:55:29.883Z,0.00
2022-10-06T03:56:29.678Z,0.00
2022-10-06T03:57:29.668Z,0.00
2022-10-06T03:58:29.787Z,0.00
2022-10-06T03:59:29.970Z,0.00
2022-10-06T04:00:29.617Z,0.00
2022-10-06T04:01:29.682Z,0.00
2022-10-06T04:02:29.690Z,0.00
2022-10-06T04:03:29.600Z,0.00
2022-10-06T04:04:29.792Z,0.00
2022-10-06T04:05:29.787Z,0.00
2022-10-06T04:06:29.547Z,0.00
2022-10-06T04:07:29.562Z,0.00
2022-10-06T04:08:29.886Z,0.00
2022-10-06T04:09:29.546Z,0.00
2022-10-06T04:10:29.531Z,0.00
2022-10-06T04:11:29.989Z,0.00
2022-10-06T04:12:29.480Z,0.00
2022-10-06T04:13:29.469Z,0.00
2022-10-06T04:14:29.451Z,0.00
2022-10-06T04:15:29.462Z,0.00
2022-10-06T04:16:29.808Z,0.00
2022-10-06T04:17:29.435Z,0.00
2022-10-06T04:18:29.706Z,0.00
2022-10-06T04:19:29.414Z,0.00
2022-10-06T04:20:29.402Z,0.00
2022-10-06T04:21:29.705Z,0.00
2022-10-06T04:22:29.662Z,0.00
2022-10-06T04:23:29.630Z,0.00
2022-10-06T04:24:29.339Z,4.00
2022-10-06T04:25:29.349Z,4.00
2022-10-06T04:26:29.332Z,4.00
2022-10-06T04:27:29.311Z,0.00
2022-10-06T04:28:36.652Z,0.00
2022-10-06T04:29:29.285Z,0.00
2022-10-06T04:30:29.297Z,0.00
2022-10-06T04:31:29.336Z,0.00
2022-10-06T04:32:29.557Z,0.00
2022-10-06T04:33:29.251Z,0.00
2022-10-06T04:34:29.248Z,0.00
2022-10-06T04:35:29.237Z,0.00
2022-10-06T04:36:29.206Z,0.00
2022-10-06T04:37:29.437Z,0.00
2022-10-06T04:38:29.385Z,0.00
2022-10-06T04:39:29.178Z,0.00
2022-10-06T04:40:29.478Z,0.00
2022-10-06T04:41:29.152Z,0.00
2022-10-06T04:42:33.964Z,0.00
2022-10-06T04:43:30.127Z,0.00
2022-10-06T04:44:29.118Z,0.00
2022-10-06T04:45:29.169Z,0.00
2022-10-06T04:46:45.443Z,0.00
2022-10-06T04:47:30.102Z,0.00
2022-10-06T04:48:29.286Z,0.00
2022-10-06T04:49:29.056Z,0.00
2022-10-06T04:50:29.070Z,0.00
2022-10-06T04:51:29.029Z,0.00
2022-10-06T04:52:29.050Z,0.00
2022-10-06T04:53:29.010Z,0.00
2022-10-06T04:54:33.398Z,0.00
2022-10-06T04:55:28.997Z,0.00
2022-10-06T04:56:28.996Z,0.00
2022-10-06T04:57:28.996Z,0.00
2022-10-06T04:58:29.583Z,0.00
2022-10-06T04:59:28.945Z,0.00
2022-10-06T05:00:28.944Z,0.00
2022-10-06T05:01:29.034Z,0.00
2022-10-06T05:02:28.997Z,0.00
2022-10-06T05:03:29.205Z,0.00
2022-10-06T05:04:28.906Z,0.00
2022-10-06T05:05:28.888Z,0.00
2022-10-06T05:06:28.883Z,0.00
2022-10-06T05:07:28.869Z,0.00
2022-10-06T05:08:29.124Z,0.00
2022-10-06T05:09:29.095Z,0.00
2022-10-06T05:10:28.837Z,0.00
2022-10-06T05:11:28.818Z,0.00
2022-10-06T05:12:28.808Z,4.00
2022-10-06T05:13:28.783Z,0.00
2022-10-06T05:14:29.133Z,4.00
2022-10-06T05:15:28.756Z,4.00
2022-10-06T05:16:28.819Z,0.00
2022-10-06T05:17:28.759Z,0.00
2022-10-06T05:18:29.009Z,4.00
2022-10-06T05:19:28.719Z,0.00
2022-10-06T05:20:29.018Z,4.00
2022-10-06T05:21:28.697Z,0.00
2022-10-06T05:22:28.692Z,4.00
2022-10-06T05:23:28.667Z,4.00
2022-10-06T05:24:28.981Z,4.00
2022-10-06T05:25:28.646Z,8.00
2022-10-06T05:26:28.642Z,12.00
2022-10-06T05:27:28.652Z,12.00
2022-10-06T05:28:29.179Z,12.00
2022-10-06T05:29:28.599Z,12.00
2022-10-06T05:30:30.634Z,16.00
2022-10-06T05:31:28.717Z,16.00
2022-10-06T05:32:31.403Z,20.00
2022-10-06T05:33:29.563Z,20.00
2022-10-06T05:34:28.541Z,28.00
2022-10-06T05:35:28.809Z,28.00
2022-10-06T05:36:28.545Z,32.00
2022-10-06T05:37:28.502Z,36.00
2022-10-06T05:38:28.932Z,40.00
2022-10-06T05:39:28.483Z,44.00
2022-10-06T05:40:28.792Z,44.00
2022-10-06T05:41:28.475Z,48.00
2022-10-06T05:42:29.801Z,52.00
2022-10-06T05:43:28.441Z,56.00
2022-10-06T05:44:28.423Z,60.00
2022-10-06T05:45:28.747Z,68.00
2022-10-06T05:46:28.569Z,68.00
2022-10-06T05:47:28.394Z,72.00
2022-10-06T05:48:28.669Z,80.00
2022-10-06T05:49:28.373Z,84.00
2022-10-06T05:50:28.375Z,88.00
2022-10-06T05:51:31.052Z,96.00
2022-10-06T05:52:28.336Z,100.00
2022-10-06T05:53:28.337Z,104.00
2022-10-06T05:54:28.315Z,108.00
2022-10-06T05:55:28.309Z,116.00
2022-10-06T05:56:28.296Z,120.00
2022-10-06T05:57:28.556Z,124.00
2022-10-06T05:58:28.378Z,128.00
2022-10-06T05:59:28.256Z,136.00
2022-10-06T06:00:28.601Z,140.00
2022-10-06T06:01:28.422Z,152.00
2022-10-06T06:02:28.318Z,160.00
2022-10-06T06:03:28.223Z,164.00
2022-10-06T06:04:28.197Z,172.00
2022-10-06T06:05:28.200Z,180.00
2022-10-06T06:06:28.421Z,188.00
2022-10-06T06:07:28.179Z,192.00
2022-10-06T06:08:42.850Z,200.00
2022-10-06T06:09:28.166Z,204.00
2022-10-06T06:10:28.156Z,208.00
2022-10-06T06:11:28.135Z,212.00
2022-10-06T06:12:28.309Z,216.00
2022-10-06T06:13:28.120Z,224.00
2022-10-06T06:14:28.353Z,236.00
2022-10-06T06:15:28.195Z,240.00
2022-10-06T06:16:28.110Z,244.00
2022-10-06T06:17:28.054Z,248.00
2022-10-06T06:18:28.394Z,256.00
2022-10-06T06:19:29.209Z,264.00
2022-10-06T06:20:28.253Z,268.00
2022-10-06T06:21:28.035Z,272.00
2022-10-06T06:22:28.012Z,280.00
2022-10-06T06:23:27.994Z,288.00
2022-10-06T06:24:27.993Z,288.00
2022-10-06T06:25:27.962Z,296.00
2022-10-06T06:26:28.204Z,304.00
2022-10-06T06:27:27.968Z,308.00
2022-10-06T06:28:28.435Z,316.00
2022-10-06T06:29:27.928Z,316.00
2022-10-06T06:30:28.247Z,332.00
2022-10-06T06:31:27.971Z,344.00
2022-10-06T06:32:27.900Z,340.00
2022-10-06T06:33:27.887Z,332.00
2022-10-06T06:34:27.878Z,324.00
2022-10-06T06:35:27.846Z,336.00
2022-10-06T06:36:28.127Z,360.00
2022-10-06T06:37:27.849Z,352.00
2022-10-06T06:38:28.158Z,368.00
2022-10-06T06:39:27.817Z,368.00
2022-10-06T06:40:27.827Z,372.00
2022-10-06T06:41:27.789Z,372.00
2022-10-06T06:42:28.058Z,360.00
2022-10-06T06:43:28.200Z,384.00
2022-10-06T06:44:27.763Z,412.00
2022-10-06T06:45:27.779Z,432.00
2022-10-06T06:46:27.793Z,448.00
2022-10-06T06:47:27.715Z,448.00
2022-10-06T06:48:28.232Z,456.00
2022-10-06T06:49:28.019Z,432.00
2022-10-06T06:50:27.924Z,432.00
2022-10-06T06:51:27.880Z,452.00
2022-10-06T06:52:27.659Z,456.00
2022-10-06T06:53:27.652Z,448.00
2022-10-06T06:54:27.653Z,452.00
2022-10-06T06:55:27.620Z,452.00
2022-10-06T06:56:27.631Z,460.00
2022-10-06T06:57:27.925Z,476.00
2022-10-06T06:58:28.066Z,468.00
2022-10-06T06:59:27.580Z,492.00
2022-10-06T07:00:28.366Z,492.00
2022-10-06T07:01:27.589Z,528.00
2022-10-06T07:02:27.865Z,520.00
2022-10-06T07:03:55.464Z,536.00
2022-10-06T07:04:28.533Z,556.00
2022-10-06T07:05:27.526Z,560.00
2022-10-06T07:06:28.106Z,576.00
2022-10-06T07:07:27.483Z,564.00
2022-10-06T07:08:28.344Z,588.00
2022-10-06T07:09:27.464Z,580.00
2022-10-06T07:10:27.468Z,596.00
2022-10-06T07:11:27.727Z,596.00
2022-10-06T07:12:27.431Z,608.00
2022-10-06T07:13:27.418Z,612.00
2022-10-06T07:14:27.446Z,624.00
2022-10-06T07:15:27.427Z,624.00
2022-10-06T07:16:27.385Z,624.00
2022-10-06T07:17:27.615Z,636.00
2022-10-06T07:18:27.691Z,636.00
2022-10-06T07:19:27.578Z,648.00
2022-10-06T07:20:27.626Z,628.00
2022-10-06T07:21:27.327Z,656.00
2022-10-06T07:22:27.316Z,656.00
2022-10-06T07:23:27.298Z,664.00
2022-10-06T07:24:27.300Z,668.00
2022-10-06T07:25:27.519Z,672.00
2022-10-06T07:26:27.258Z,676.00
2022-10-06T07:27:27.257Z,688.00
2022-10-06T07:28:27.270Z,688.00
2022-10-06T07:29:27.241Z,696.00
2022-10-06T07:30:27.208Z,700.00
2022-10-06T07:31:27.248Z,708.00
2022-10-06T07:32:27.207Z,716.00
2022-10-06T07:33:27.183Z,720.00
2022-10-06T07:34:27.380Z,724.00
2022-10-06T07:35:27.498Z,728.00
2022-10-06T07:36:27.139Z,736.00
2022-10-06T07:37:27.121Z,744.00
2022-10-06T07:38:27.133Z,760.00
2022-10-06T07:39:27.104Z,756.00
2022-10-06T07:40:27.424Z,756.00
2022-10-06T07:41:27.082Z,768.00
2022-10-06T07:42:27.072Z,768.00
2022-10-06T07:43:27.060Z,776.00
2022-10-06T07:44:27.054Z,780.00
2022-10-06T07:45:27.033Z,784.00
2022-10-06T07:46:27.272Z,792.00
2022-10-06T07:47:27.030Z,800.00
2022-10-06T07:48:26.993Z,800.00
2022-10-06T07:49:27.028Z,808.00
2022-10-06T07:50:26.976Z,840.00
2022-10-06T07:51:27.298Z,828.00
2022-10-06T07:52:26.967Z,828.00
2022-10-06T07:53:26.945Z,828.00
2022-10-06T07:54:27.530Z,840.00
2022-10-06T07:55:26.919Z,836.00
2022-10-06T07:56:27.219Z,852.00
2022-10-06T07:57:26.908Z,852.00
2022-10-06T07:58:26.876Z,856.00
2022-10-06T07:59:26.880Z,864.00
2022-10-06T08:00:26.913Z,912.00
2022-10-06T08:01:26.948Z,880.00
2022-10-06T08:02:30.198Z,872.00
2022-10-06T08:03:27.978Z,876.00
2022-10-06T08:04:26.836Z,884.00
2022-10-06T08:05:26.818Z,888.00
2022-10-06T08:06:26.788Z,892.00
2022-10-06T08:07:26.781Z,892.00
2022-10-06T08:08:27.000Z,888.00
2022-10-06T08:09:27.016Z,900.00
2022-10-06T08:10:26.763Z,924.00
2022-10-06T08:11:26.744Z,908.00
2022-10-06T08:12:27.005Z,916.00
2022-10-06T08:13:26.724Z,924.00
2022-10-06T08:14:26.714Z,916.00
2022-10-06T08:15:26.949Z,932.00
2022-10-06T08:16:26.724Z,932.00
2022-10-06T08:17:26.661Z,932.00
2022-10-06T08:18:45.360Z,940.00
2022-10-06T08:19:27.655Z,940.00
2022-10-06T08:20:26.954Z,948.00
2022-10-06T08:21:26.623Z,944.00
2022-10-06T08:22:26.611Z,952.00
2022-10-06T08:23:26.648Z,952.00
2022-10-06T08:24:33.811Z,960.00
2022-10-06T08:25:27.588Z,1008.00
2022-10-06T08:26:26.887Z,972.00
2022-10-06T08:27:26.552Z,984.00
2022-10-06T08:28:26.593Z,980.00
2022-10-06T08:29:26.539Z,992.00
2022-10-06T08:30:26.523Z,1012.00
2022-10-06T08:31:26.601Z,992.00
2022-10-06T08:32:26.786Z,1008.00
2022-10-06T08:33:26.484Z,1008.00
2022-10-06T08:34:26.789Z,1008.00
2022-10-06T08:35:26.481Z,1020.00
2022-10-06T08:36:31.046Z,1020.00
2022-10-06T08:37:27.552Z,1016.00
2022-10-06T08:38:26.454Z,1024.00
2022-10-06T08:39:26.688Z,1024.00
2022-10-06T08:40:26.399Z,1032.00
2022-10-06T08:41:26.389Z,1032.00
2022-10-06T08:42:26.375Z,1044.00
2022-10-06T08:43:26.368Z,1044.00
2022-10-06T08:44:26.550Z,1044.00
2022-10-06T08:45:26.350Z,1052.00
2022-10-06T08:46:26.353Z,1056.00
2022-10-06T08:47:26.322Z,1068.00
2022-10-06T08:48:26.311Z,1068.00
2022-10-06T08:49:26.290Z,1076.00
2022-10-06T08:50:26.603Z,1084.00
2022-10-06T08:51:26.284Z,1080.00
2022-10-06T08:52:26.260Z,1068.00
2022-10-06T08:53:26.266Z,1084.00
2022-10-06T08:54:26.245Z,1092.00
2022-10-06T08:55:26.545Z,1092.00
2022-10-06T08:56:26.225Z,1088.00
2022-10-06T08:57:26.202Z,1092.00
2022-10-06T08:58:26.319Z,1112.00
2022-10-06T08:59:26.195Z,1116.00
2022-10-06T09:00:26.407Z,932.00
2022-10-06T09:01:26.199Z,1116.00
2022-10-06T09:02:26.193Z,1192.00
2022-10-06T09:03:26.134Z,1132.00
2022-10-06T09:04:26.366Z,1140.00
2022-10-06T09:05:26.105Z,1152.00
2022-10-06T09:06:26.113Z,1164.00
2022-10-06T09:07:26.086Z,1172.00
2022-10-06T09:08:26.074Z,1204.00
2022-10-06T09:09:26.376Z,1196.00
2022-10-06T09:10:26.060Z,1132.00
2022-10-06T09:11:26.051Z,1172.00
2022-10-06T09:12:26.255Z,1184.00
2022-10-06T09:13:26.032Z,1152.00
2022-10-06T09:14:25.998Z,1208.00
2022-10-06T09:15:26.008Z,1204.00
2022-10-06T09:16:26.228Z,1044.00
2022-10-06T09:17:26.001Z,1224.00
2022-10-06T09:18:34.853Z,1208.00
2022-10-06T09:19:31.263Z,1232.00
2022-10-06T09:20:26.946Z,1148.00
2022-10-06T09:21:25.940Z,1572.00
2022-10-06T09:22:25.923Z,1240.00
2022-10-06T09:23:25.899Z,668.00
2022-10-06T09:24:25.894Z,600.00
2022-10-06T09:25:25.870Z,660.00
2022-10-06T09:26:26.182Z,1256.00
2022-10-06T09:27:25.865Z,1296.00
2022-10-06T09:28:25.882Z,1120.00
2022-10-06T09:29:25.847Z,912.00
2022-10-06T09:30:25.812Z,1328.00
2022-10-06T09:31:25.904Z,1292.00
2022-10-06T09:32:26.123Z,652.00
2022-10-06T09:33:25.783Z,1272.00
2022-10-06T09:34:25.787Z,1204.00
2022-10-06T09:35:25.754Z,1316.00
2022-10-06T09:36:25.988Z,1336.00
2022-10-06T09:37:25.748Z,1496.00
2022-10-06T09:38:25.725Z,1352.00
2022-10-06T09:39:25.948Z,1376.00
2022-10-06T09:40:25.718Z,1328.00
2022-10-06T09:41:25.690Z,1420.00
2022-10-06T09:42:25.697Z,1372.00
2022-10-06T09:43:25.671Z,1328.00
2022-10-06T09:44:25.669Z,1296.00
2022-10-06T09:45:25.959Z,1304.00
2022-10-06T09:46:25.617Z,1376.00
2022-10-06T09:47:25.626Z,1360.00
2022-10-06T09:48:25.920Z,1356.00
2022-10-06T09:49:25.598Z,1348.00
2022-10-06T09:50:25.584Z,1388.00
2022-10-06T09:51:25.583Z,1368.00
2022-10-06T09:52:25.573Z,1336.00
2022-10-06T09:53:25.840Z,1344.00
2022-10-06T09:54:25.529Z,1340.00
2022-10-06T09:55:25.519Z,1356.00
2022-10-06T09:56:25.509Z,1356.00
2022-10-06T09:57:25.822Z,1272.00
2022-10-06T09:58:25.505Z,752.00
2022-10-06T09:59:25.471Z,996.00
2022-10-06T10:00:25.463Z,912.00
2022-10-06T10:01:25.546Z,1324.00
2022-10-06T10:02:25.828Z,1196.00
2022-10-06T10:03:25.431Z,1416.00
2022-10-06T10:04:40.112Z,1664.00
2022-10-06T10:05:25.424Z,1528.00
2022-10-06T10:06:49.072Z,1504.00
2022-10-06T10:07:25.373Z,1484.00
2022-10-06T10:08:25.483Z,1296.00
2022-10-06T10:09:25.356Z,1596.00
2022-10-06T10:10:49.004Z,1084.00
2022-10-06T10:11:25.335Z,744.00
2022-10-06T10:12:25.385Z,840.00
2022-10-06T10:13:25.556Z,792.00
2022-10-06T10:14:25.297Z,1232.00
2022-10-06T10:15:25.287Z,1464.00
2022-10-06T10:16:25.371Z,1684.00
2022-10-06T10:17:25.266Z,1840.00
2022-10-06T10:18:25.590Z,1900.00
2022-10-06T10:19:25.262Z,1584.00
2022-10-06T10:20:25.234Z,1572.00
2022-10-06T10:21:25.239Z,1556.00
2022-10-06T10:22:25.216Z,1424.00
2022-10-06T10:23:30.855Z,1440.00
2022-10-06T10:24:26.448Z,1624.00
2022-10-06T10:25:25.178Z,2080.00
2022-10-06T10:26:25.180Z,1608.00
2022-10-06T10:27:25.170Z,1648.00
2022-10-06T10:29:15.651Z,1536.00
2022-10-06T10:30:15.358Z,1632.00
2022-10-06T10:31:15.622Z,2064.00
2022-10-06T10:32:15.282Z,2188.00
2022-10-06T10:33:15.341Z,1836.00
2022-10-06T10:34:23.965Z,1660.00
2022-10-06T10:35:16.273Z,1632.00
2022-10-06T10:36:15.543Z,1728.00
2022-10-06T10:37:15.220Z,2116.00
2022-10-06T10:38:15.210Z,2504.00
2022-10-06T10:39:15.222Z,2160.00
2022-10-06T10:40:15.190Z,1780.00
2022-10-06T10:41:15.452Z,1920.00
2022-10-06T10:42:15.174Z,1900.00
2022-10-06T10:43:15.174Z,1600.00
2022-10-06T10:44:15.144Z,1488.00
2022-10-06T10:45:15.132Z,1464.00
2022-10-06T10:46:15.174Z,1480.00
2022-10-06T10:47:15.160Z,1484.00
2022-10-06T10:48:15.108Z,1500.00
2022-10-06T10:49:15.124Z,1476.00
2022-10-06T10:50:15.076Z,1540.00
2022-10-06T10:51:15.066Z,1548.00
2022-10-06T10:52:15.068Z,1584.00
2022-10-06T10:53:15.089Z,1908.00
2022-10-06T10:54:15.027Z,2012.00
2022-10-06T10:55:15.297Z,2304.00
2022-10-06T10:56:14.997Z,2208.00
2022-10-06T10:57:15.025Z,2072.00
2022-10-06T10:58:15.004Z,1784.00
2022-10-06T10:59:14.970Z,1728.00
2022-10-06T11:00:14.971Z,2224.00
2022-10-06T11:01:15.244Z,2284.00
2022-10-06T11:02:14.960Z,1712.00
2022-10-06T11:03:14.942Z,1636.00
2022-10-06T11:04:14.925Z,1604.00
2022-10-06T11:05:14.899Z,1884.00
2022-10-06T11:06:14.905Z,2148.00
2022-10-06T11:07:14.913Z,1508.00
2022-10-06T11:08:14.889Z,1424.00
2022-10-06T11:09:14.851Z,1420.00
2022-10-06T11:10:14.841Z,1412.00
2022-10-06T11:11:15.114Z,1412.00
2022-10-06T11:12:14.840Z,1428.00
2022-10-06T11:13:14.810Z,1412.00
2022-10-06T11:14:14.805Z,1412.00
2022-10-06T11:15:14.785Z,1416.00
2022-10-06T11:16:14.815Z,1380.00
2022-10-06T11:17:14.797Z,1404.00
2022-10-06T11:18:19.424Z,1424.00
2022-10-06T11:19:15.763Z,1420.00
2022-10-06T11:20:14.724Z,1436.00
2022-10-06T11:21:14.727Z,1556.00
2022-10-06T11:22:14.708Z,1416.00
2022-10-06T11:23:14.995Z,1396.00
2022-10-06T11:24:14.684Z,1396.00
2022-10-06T11:25:14.679Z,1392.00
2022-10-06T11:26:14.978Z,1384.00
2022-10-06T11:27:14.654Z,1376.00
2022-10-06T11:28:14.686Z,1400.00
2022-10-06T11:29:14.632Z,1376.00
2022-10-06T11:30:14.610Z,1380.00
2022-10-06T11:31:17.652Z,1388.00
2022-10-06T11:32:15.600Z,1392.00
2022-10-06T11:33:14.821Z,1408.00
2022-10-06T11:34:14.572Z,1428.00
2022-10-06T11:35:14.782Z,1136.00
2022-10-06T11:36:14.539Z,1452.00
2022-10-06T11:37:14.553Z,1416.00
2022-10-06T11:38:14.527Z,1412.00
2022-10-06T11:39:14.510Z,1408.00
2022-10-06T11:40:14.492Z,1424.00
2022-10-06T11:41:14.802Z,1424.00
2022-10-06T11:42:14.485Z,1412.00
2022-10-06T11:43:14.473Z,1380.00
2022-10-06T11:44:14.455Z,1388.00
2022-10-06T11:45:14.433Z,1392.00
2022-10-06T11:46:14.711Z,1396.00
2022-10-06T11:47:14.428Z,1372.00
2022-10-06T11:48:14.715Z,1412.00
2022-10-06T11:49:14.394Z,1416.00
2022-10-06T11:50:14.390Z,1408.00
2022-10-06T11:51:14.364Z,1408.00
2022-10-06T11:52:14.374Z,1408.00
2022-10-06T11:53:14.336Z,1408.00
2022-10-06T11:54:14.327Z,1392.00
2022-10-06T11:55:14.339Z,1412.00
2022-10-06T11:56:14.534Z,1412.00
2022-10-06T11:57:14.310Z,648.00
2022-10-06T11:59:15.271Z,1388.00
2022-10-06T12:00:14.271Z,1400.00
2022-10-06T12:01:14.571Z,1384.00
2022-10-06T12:02:14.325Z,1384.00
2022-10-06T12:03:14.271Z,1372.00
2022-10-06T12:04:14.223Z,1384.00
2022-10-06T12:05:49.398Z,1376.00
2022-10-06T12:06:15.515Z,1392.00
2022-10-06T12:07:14.193Z,1408.00
2022-10-06T12:08:14.160Z,1408.00
2022-10-06T12:09:14.486Z,1408.00
2022-10-06T12:10:14.149Z,1364.00
2022-10-06T12:11:14.133Z,1380.00
2022-10-06T12:12:14.134Z,1372.00
2022-10-06T12:13:49.294Z,1368.00
2022-10-06T12:17:19.273Z,1388.00
2022-10-06T12:18:14.269Z,1356.00
2022-10-06T12:19:14.035Z,1364.00
2022-10-06T12:20:14.047Z,1368.00
2022-10-06T12:21:14.022Z,1368.00
2022-10-06T12:22:14.019Z,1356.00
2022-10-06T12:23:14.003Z,1364.00
2022-10-06T12:25:13.988Z,1368.00
2022-10-06T12:26:13.970Z,1364.00
2022-10-06T12:27:13.946Z,1372.00
2022-10-06T12:28:13.986Z,1356.00
2022-10-06T12:29:13.945Z,1360.00
2022-10-06T12:30:14.118Z,1360.00
2022-10-06T12:31:18.083Z,1364.00
2022-10-06T12:32:13.898Z,1380.00
2022-10-06T12:33:14.186Z,1372.00
2022-10-06T12:34:13.882Z,1376.00
2022-10-06T12:35:13.873Z,1384.00
2022-10-06T12:36:13.839Z,1360.00
2022-10-06T12:37:13.843Z,1364.00
2022-10-06T12:38:13.820Z,1364.00
2022-10-06T12:39:13.834Z,1356.00
2022-10-06T12:40:13.823Z,1356.00
2022-10-06T12:41:13.802Z,1356.00
2022-10-06T12:42:13.785Z,1356.00
2022-10-06T12:43:13.765Z,1372.00
2022-10-06T12:44:13.764Z,1352.00
2022-10-06T12:45:13.965Z,1360.00
2022-10-06T12:46:14.034Z,1344.00
2022-10-06T12:47:13.712Z,1352.00
2022-10-06T12:48:13.697Z,1364.00